createdAt,value
2017-03-17T00:01:05.537Z,62.59
2017-03-17T00:02:15.792Z,61.55
2017-03-17T00:03:26.049Z,60.31
2017-03-17T00:04:36.305Z,60.5
2017-03-17T00:05:46.563Z,60.5
2017-03-17T00:06:56.855Z,60.13
2017-03-17T00:08:06.489Z,60.41
2017-03-17T00:09:16.745Z,60.89
2017-03-17T00:10:26.688Z,61.65
2017-03-17T00:11:36.636Z,60.7
2017-03-17T00:12:46.574Z,61.36
2017-03-17T00:13:56.521Z,61.27
2017-03-17T00:15:06.773Z,60.79
2017-03-17T00:16:16.411Z,60.98
2017-03-17T00:17:26.664Z,60.5
2017-03-17T00:18:36.597Z,60.79
2017-03-17T00:19:46.854Z,61.46
2017-03-17T00:20:57.109Z,62.59
2017-03-17T00:22:07.053Z,64.93
2017-03-17T00:23:17.312Z,65.59
2017-03-17T00:24:27.258Z,65.12
2017-03-17T00:25:37.205Z,65.97
2017-03-17T00:26:46.831Z,67.68
2017-03-17T00:27:57.085Z,68.06
2017-03-17T00:29:07.340Z,69.38
2017-03-17T00:30:17.592Z,69.38
2017-03-17T00:31:27.844Z,69.48
2017-03-17T00:32:37.780Z,69.57
2017-03-17T00:33:48.041Z,69.38
2017-03-17T00:34:58.292Z,69.2
2017-03-17T00:36:07.606Z,68.44
2017-03-17T00:37:17.883Z,67.96
2017-03-17T00:38:28.143Z,67.68
2017-03-17T00:39:38.406Z,67.3
2017-03-17T00:40:48.664Z,67.3
2017-03-17T00:41:58.603Z,66.83
2017-03-17T00:43:08.855Z,66.54
2017-03-17T00:44:18.797Z,66.83
2017-03-17T00:45:29.058Z,67.3
2017-03-17T00:46:39.312Z,67.08
2017-03-17T00:47:49.246Z,66.6
2017-03-17T00:48:59.500Z,66.6
2017-03-17T00:50:09.759Z,66.13
2017-03-17T00:51:20.011Z,66.6
2017-03-17T00:52:29.950Z,66.22
2017-03-17T00:53:40.207Z,66.13
2017-03-17T00:54:50.462Z,65.94
2017-03-17T00:56:00.398Z,64.81
2017-03-17T00:57:10.653Z,65.19
2017-03-17T00:58:20.598Z,64.9
2017-03-17T00:59:30.966Z,64.81
2017-03-17T01:00:40.622Z,65.09
2017-03-17T01:01:50.252Z,64.9
2017-03-17T01:03:00.504Z,65
2017-03-17T01:04:10.759Z,65.94
2017-03-17T01:05:20.729Z,65.94
2017-03-17T01:06:30.991Z,65.66
2017-03-17T01:07:41.249Z,65.94
2017-03-17T01:08:51.197Z,66.8
2017-03-17T01:10:01.455Z,66.13
2017-03-17T01:11:11.707Z,66.8
2017-03-17T01:12:21.970Z,67.65
2017-03-17T01:13:31.910Z,66.99
2017-03-17T01:14:41.857Z,67.36
2017-03-17T01:15:52.111Z,67.08
2017-03-17T01:17:02.366Z,66.13
2017-03-17T01:18:11.991Z,66.13
2017-03-17T01:19:21.935Z,66.03
2017-03-17T01:20:32.195Z,65.94
2017-03-17T01:21:42.142Z,64.81
2017-03-17T01:22:52.398Z,65.47
2017-03-17T01:24:02.654Z,65.56
2017-03-17T01:25:12.910Z,64.52
2017-03-17T01:26:22.855Z,64.14
2017-03-17T01:27:33.109Z,63.39
2017-03-17T01:28:43.060Z,64.71
2017-03-17T01:29:53.322Z,64.42
2017-03-17T01:31:03.583Z,64.81
2017-03-17T01:32:13.526Z,65.09
2017-03-17T01:33:23.474Z,65.19
2017-03-17T01:34:33.734Z,65.47
2017-03-17T01:35:43.991Z,66.41
2017-03-17T01:36:54.249Z,65.94
2017-03-17T01:38:04.510Z,66.41
2017-03-17T01:39:14.765Z,67.46
2017-03-17T01:40:24.711Z,67.27
2017-03-17T01:41:34.647Z,67.33
2017-03-17T01:42:44.589Z,67.52
2017-03-17T01:43:54.214Z,67.71
2017-03-17T01:45:04.161Z,67.14
2017-03-17T01:46:14.112Z,67.61
2017-03-17T01:47:24.371Z,67.9
2017-03-17T01:48:34.624Z,67.99
2017-03-17T01:49:44.879Z,67.61
2017-03-17T01:50:55.131Z,68.27
2017-03-17T01:52:05.385Z,68.46
2017-03-17T01:53:15.636Z,67.8
2017-03-17T01:54:25.895Z,68.37
2017-03-17T01:55:36.150Z,67.99
2017-03-17T01:56:45.468Z,68.46
2017-03-17T01:57:55.426Z,68.84
2017-03-17T01:59:05.680Z,69.03
2017-03-17T02:00:15.939Z,68.46
2017-03-17T02:01:26.196Z,67.8
2017-03-17T02:02:36.135Z,66.86
2017-03-17T02:03:46.081Z,68.84
2017-03-17T02:04:56.015Z,69.32
2017-03-17T02:06:06.270Z,68.46
2017-03-17T02:07:16.531Z,67.8
2017-03-17T02:08:26.815Z,68.65
2017-03-17T02:09:37.078Z,68.08
2017-03-17T02:10:47.025Z,67.8
2017-03-17T02:11:57.278Z,67.9
2017-03-17T02:13:07.533Z,68.37
2017-03-17T02:14:17.498Z,67.52
2017-03-17T02:15:27.754Z,67.52
2017-03-17T02:16:38.007Z,67.99
2017-03-17T02:17:48.258Z,67.9
2017-03-17T02:18:58.520Z,68.27
2017-03-17T02:20:08.461Z,68.37
2017-03-17T02:21:18.406Z,68.75
2017-03-17T02:22:28.662Z,67.8
2017-03-17T02:23:38.914Z,67.61
2017-03-17T02:24:49.167Z,67.52
2017-03-17T02:25:59.111Z,67.05
2017-03-17T02:27:09.046Z,66.67
2017-03-17T02:28:19.297Z,67.52
2017-03-17T02:29:29.555Z,67.05
2017-03-17T02:30:39.519Z,67.61
2017-03-17T02:31:48.838Z,67.9
2017-03-17T02:33:00.771Z,67.99
2017-03-17T02:34:10.710Z,67.14
2017-03-17T02:35:20.972Z,67.71
2017-03-17T02:36:30.916Z,67.71
2017-03-17T02:37:41.182Z,68.08
2017-03-17T02:38:51.444Z,68.27
2017-03-17T02:40:01.700Z,68.75
2017-03-17T02:41:11.647Z,68.65
2017-03-17T02:42:21.909Z,69.28
2017-03-17T02:43:31.577Z,69.51
2017-03-17T02:44:41.835Z,69.85
2017-03-17T02:45:52.093Z,69.95
2017-03-17T02:47:02.346Z,69.57
2017-03-17T02:48:12.593Z,69.85
2017-03-17T02:49:22.845Z,69.76
2017-03-17T02:50:33.107Z,69.66
2017-03-17T02:51:43.370Z,69.76
2017-03-17T02:52:53.631Z,70.32
2017-03-17T02:54:03.885Z,70.23
2017-03-17T02:55:14.140Z,69.95
2017-03-17T02:56:24.081Z,70.04
2017-03-17T02:57:34.338Z,69.95
2017-03-17T02:58:44.301Z,69.66
2017-03-17T02:59:54.247Z,70.23
2017-03-17T03:01:04.191Z,71.17
2017-03-17T03:02:14.121Z,70.14
2017-03-17T03:03:24.373Z,70.14
2017-03-17T03:04:34.637Z,70.42
2017-03-17T03:05:44.576Z,70.32
2017-03-17T03:06:54.830Z,70.51
2017-03-17T03:08:05.117Z,70.79
2017-03-17T03:09:14.754Z,70.79
2017-03-17T03:10:25.012Z,70.61
2017-03-17T03:11:35.270Z,71.27
2017-03-17T03:12:45.209Z,70.98
2017-03-17T03:13:55.148Z,70.61
2017-03-17T03:15:05.093Z,70.7
2017-03-17T03:16:15.350Z,70.42
2017-03-17T03:17:25.609Z,70.23
2017-03-17T03:18:35.868Z,70.32
2017-03-17T03:19:46.065Z,70.42
2017-03-17T03:20:55.695Z,70.7
2017-03-17T03:22:05.947Z,70.32
2017-03-17T03:23:16.208Z,70.7
2017-03-17T03:24:26.492Z,70.04
2017-03-17T03:25:36.744Z,69.47
2017-03-17T03:26:46.692Z,69.47
2017-03-17T03:27:56.642Z,70.04
2017-03-17T03:29:06.592Z,69.76
2017-03-17T03:30:16.531Z,69.09
2017-03-17T03:31:26.787Z,69.57
2017-03-17T03:32:37.049Z,69.28
2017-03-17T03:33:47.308Z,69.76
2017-03-17T03:34:57.568Z,69.57
2017-03-17T03:36:07.816Z,69.85
2017-03-17T03:37:17.755Z,69.57
2017-03-17T03:38:28.012Z,69.85
2017-03-17T03:39:38.274Z,69.76
2017-03-17T03:40:48.530Z,69.95
2017-03-17T03:41:58.786Z,70.04
2017-03-17T03:43:09.049Z,69.57
2017-03-17T03:44:19.305Z,70.23
2017-03-17T03:45:29.254Z,69.85
2017-03-17T03:46:39.508Z,70.51
2017-03-17T03:47:49.457Z,70.32
2017-03-17T03:48:59.720Z,69.76
2017-03-17T03:50:09.666Z,69.66
2017-03-17T03:51:19.600Z,70.04
2017-03-17T03:52:29.850Z,69.47
2017-03-17T03:53:40.109Z,70.04
2017-03-17T03:54:50.048Z,69.38
2017-03-17T03:56:00.319Z,69.38
2017-03-17T03:57:10.568Z,69.38
2017-03-17T03:58:20.829Z,69.38
2017-03-17T03:59:31.100Z,69.19
2017-03-17T04:00:41.358Z,69
2017-03-17T04:01:51.615Z,68.9
2017-03-17T04:03:01.869Z,69.19
2017-03-17T04:04:11.819Z,69.66
2017-03-17T04:05:22.079Z,69.47
2017-03-17T04:06:38.110Z,68.62
2017-03-17T04:07:48.371Z,69.09
2017-03-17T04:08:58.629Z,68.81
2017-03-17T04:10:08.575Z,68.15
2017-03-17T04:11:18.832Z,68.43
2017-03-17T04:12:31.555Z,69.09
2017-03-17T04:13:41.814Z,69.19
2017-03-17T04:14:52.068Z,68.33
2017-03-17T04:16:02.022Z,69.09
2017-03-17T04:17:12.281Z,69.09
2017-03-17T04:18:22.633Z,68.71
2017-03-17T04:19:32.886Z,68.33
2017-03-17T04:20:42.828Z,68.24
2017-03-17T04:21:52.773Z,68.15
2017-03-17T04:23:02.422Z,68.24
2017-03-17T04:24:12.766Z,67.77
2017-03-17T04:25:22.713Z,68.43
2017-03-17T04:26:32.963Z,69
2017-03-17T04:27:42.904Z,68.33
2017-03-17T04:28:52.846Z,68.43
2017-03-17T04:30:03.349Z,68.33
2017-03-17T04:31:13.293Z,68.71
2017-03-17T04:32:23.233Z,68.52
2017-03-17T04:33:33.171Z,68.05
2017-03-17T04:34:43.425Z,67.96
2017-03-17T04:35:53.771Z,67.77
2017-03-17T04:37:04.027Z,67.96
2017-03-17T04:38:13.970Z,67.96
2017-03-17T04:39:24.233Z,67.68
2017-03-17T04:40:34.508Z,67.86
2017-03-17T04:41:44.865Z,67.86
2017-03-17T04:42:55.121Z,67.86
2017-03-17T04:44:05.072Z,67.11
2017-03-17T04:45:15.021Z,67.86
2017-03-17T04:46:25.277Z,68.62
2017-03-17T04:47:35.320Z,68.52
2017-03-17T04:48:45.585Z,68.33
2017-03-17T04:49:55.851Z,68.33
2017-03-17T04:51:06.109Z,69.28
2017-03-17T04:52:16.371Z,68.71
2017-03-17T04:53:26.729Z,68.62
2017-03-17T04:54:36.673Z,67.86
2017-03-17T04:55:46.615Z,68.24
2017-03-17T04:56:56.874Z,68.43
2017-03-17T04:58:07.121Z,68.33
2017-03-17T04:59:17.355Z,68.33
2017-03-17T05:00:27.640Z,68.71
2017-03-17T05:01:37.895Z,68.52
2017-03-17T05:02:47.834Z,68.62
2017-03-17T05:03:58.099Z,68.52
2017-03-17T05:05:08.458Z,68.43
2017-03-17T05:06:18.707Z,68.62
2017-03-17T05:07:28.957Z,69.19
2017-03-17T05:08:38.897Z,68.33
2017-03-17T05:09:49.148Z,68.52
2017-03-17T05:11:01.501Z,68.62
2017-03-17T05:12:11.756Z,68.71
2017-03-17T05:13:22.009Z,67.77
2017-03-17T05:14:31.965Z,68.05
2017-03-17T05:15:42.224Z,68.43
2017-03-17T05:16:52.517Z,68.24
2017-03-17T05:18:02.769Z,68.62
2017-03-17T05:19:12.707Z,68.81
2017-03-17T05:20:22.958Z,69.09
2017-03-17T05:21:33.216Z,68.71
2017-03-17T05:22:43.567Z,68.52
2017-03-17T05:23:53.512Z,68.52
2017-03-17T05:25:03.460Z,68.62
2017-03-17T05:26:13.718Z,68.52
2017-03-17T05:27:23.966Z,68.43
2017-03-17T05:28:33.696Z,68.43
2017-03-17T05:29:43.958Z,68.62
2017-03-17T05:30:54.220Z,68.24
2017-03-17T05:32:04.474Z,68.24
2017-03-17T05:33:14.724Z,68.62
2017-03-17T05:34:24.771Z,68.33
2017-03-17T05:35:34.713Z,69.47
2017-03-17T05:36:44.650Z,69.09
2017-03-17T05:37:54.591Z,69
2017-03-17T05:39:04.531Z,69.09
2017-03-17T05:40:14.885Z,69
2017-03-17T05:41:24.850Z,68.71
2017-03-17T05:42:35.105Z,69.28
2017-03-17T05:43:45.380Z,69
2017-03-17T05:44:55.652Z,69.19
2017-03-17T05:46:05.692Z,69.28
2017-03-17T05:47:15.946Z,68.9
2017-03-17T05:48:26.204Z,68.71
2017-03-17T05:49:36.455Z,68.81
2017-03-17T05:50:46.712Z,68.71
2017-03-17T05:51:57.074Z,69.28
2017-03-17T05:53:07.327Z,69.19
2017-03-17T05:54:17.597Z,68.9
2017-03-17T05:55:27.223Z,69.09
2017-03-17T05:56:37.481Z,69.28
2017-03-17T05:57:47.831Z,69.76
2017-03-17T05:58:58.097Z,69.95
2017-03-17T06:00:08.357Z,69.85
2017-03-17T06:01:18.613Z,69.47
2017-03-17T06:02:28.875Z,69.19
2017-03-17T06:03:39.380Z,69.47
2017-03-17T06:04:49.639Z,69.57
2017-03-17T06:05:59.901Z,69.66
2017-03-17T06:07:09.843Z,69.76
2017-03-17T06:08:19.776Z,69.19
2017-03-17T06:09:30.132Z,69.76
2017-03-17T06:10:40.071Z,69.28
2017-03-17T06:11:50.008Z,70.04
2017-03-17T06:13:00.265Z,69.38
2017-03-17T06:14:10.525Z,69.66
2017-03-17T06:15:20.583Z,69
2017-03-17T06:16:30.212Z,69.28
2017-03-17T06:17:40.466Z,69.28
2017-03-17T06:18:50.413Z,69
2017-03-17T06:20:00.680Z,68.24
2017-03-17T06:21:14.777Z,69.38
2017-03-17T06:22:25.031Z,69
2017-03-17T06:23:34.673Z,69.09
2017-03-17T06:24:44.617Z,67.77
2017-03-17T06:25:54.873Z,68.43
2017-03-17T06:27:04.965Z,68.52
2017-03-17T06:28:15.217Z,68.43
2017-03-17T06:29:25.152Z,67.58
2017-03-17T06:30:35.404Z,67.58
2017-03-17T06:31:45.662Z,67.99
2017-03-17T06:32:56.013Z,67.99
2017-03-17T06:34:06.270Z,67.43
2017-03-17T06:35:16.529Z,68.65
2017-03-17T06:36:26.152Z,68.75
2017-03-17T06:37:36.413Z,68.75
2017-03-17T06:38:46.820Z,68.71
2017-03-17T06:39:57.085Z,68.52
2017-03-17T06:41:07.028Z,68.24
2017-03-17T06:42:17.279Z,67.86
2017-03-17T06:43:26.904Z,67.68
2017-03-17T06:44:37.265Z,68.05
2017-03-17T06:45:47.521Z,68.24
2017-03-17T06:46:57.777Z,68.05
2017-03-17T06:48:08.032Z,68.46
2017-03-17T06:49:17.348Z,67.9
2017-03-17T06:50:27.393Z,67.61
2017-03-17T06:51:37.337Z,67.05
2017-03-17T06:52:47.596Z,67.05
2017-03-17T06:53:57.543Z,67.49
2017-03-17T06:55:07.806Z,67.43
2017-03-17T06:56:18.178Z,67.14
2017-03-17T06:57:28.121Z,66.76
2017-03-17T06:58:38.066Z,66.76
2017-03-17T06:59:48.325Z,66.38
2017-03-17T07:00:58.611Z,66.57
2017-03-17T07:02:08.657Z,66.57
2017-03-17T07:03:18.604Z,66.76
2017-03-17T07:04:28.870Z,66.47
2017-03-17T07:05:39.121Z,66.95
2017-03-17T07:06:49.377Z,66.95
2017-03-17T07:07:59.980Z,66.38
2017-03-17T07:09:10.232Z,65.63
2017-03-17T07:10:20.177Z,65.63
2017-03-17T07:11:30.438Z,65.63
2017-03-17T07:12:40.385Z,66.38
2017-03-17T07:13:50.750Z,66.95
2017-03-17T07:15:01.007Z,66.38
2017-03-17T07:16:11.259Z,67.05
2017-03-17T07:17:20.881Z,67.05
2017-03-17T07:18:31.135Z,67.05
2017-03-17T07:19:41.641Z,66.09
2017-03-17T07:20:51.896Z,66.67
2017-03-17T07:22:01.837Z,65.44
2017-03-17T07:23:12.090Z,66.38
2017-03-17T07:24:22.360Z,66.28
2017-03-17T07:25:32.715Z,66
2017-03-17T07:26:42.979Z,66.19
2017-03-17T07:27:53.231Z,65.81
2017-03-17T07:29:03.532Z,65.15
2017-03-17T07:30:13.786Z,65.25
2017-03-17T07:31:23.849Z,65.44
2017-03-17T07:32:34.111Z,64.77
2017-03-17T07:33:44.377Z,64.87
2017-03-17T07:34:54.648Z,65.06
2017-03-17T07:36:04.907Z,65.25
2017-03-17T07:37:14.946Z,65.25
2017-03-17T07:38:24.887Z,64.77
2017-03-17T07:39:35.153Z,64.96
2017-03-17T07:40:45.407Z,65.06
2017-03-17T07:41:55.666Z,65.44
2017-03-17T07:43:06.022Z,65.53
2017-03-17T07:44:16.288Z,65.44
2017-03-17T07:45:26.545Z,64.77
2017-03-17T07:46:36.845Z,65.15
2017-03-17T07:47:46.796Z,65.06
2017-03-17T07:48:56.847Z,65.06
2017-03-17T07:50:07.098Z,65.15
2017-03-17T07:51:17.035Z,65.25
2017-03-17T07:52:27.290Z,64.49
2017-03-17T07:53:37.550Z,64.87
2017-03-17T07:54:47.908Z,64.77
2017-03-17T07:55:57.859Z,64.87
2017-03-17T07:57:07.795Z,64.49
2017-03-17T07:58:18.060Z,65.15
2017-03-17T07:59:28.316Z,64.68
2017-03-17T08:00:38.673Z,64.49
2017-03-17T08:01:48.613Z,64.58
2017-03-17T08:02:58.862Z,64.39
2017-03-17T08:04:09.124Z,64.49
2017-03-17T08:05:19.388Z,64.39
2017-03-17T08:06:29.428Z,63.82
2017-03-17T08:07:39.370Z,64.39
2017-03-17T08:08:49.629Z,64.87
2017-03-17T08:09:59.893Z,64.49
2017-03-17T08:11:10.146Z,63.82
2017-03-17T08:12:20.507Z,63.35
2017-03-17T08:13:30.455Z,63.45
2017-03-17T08:14:40.724Z,63.45
2017-03-17T08:15:50.702Z,63.76
2017-03-17T08:17:00.636Z,63.29
2017-03-17T08:18:10.993Z,62.62
2017-03-17T08:19:20.953Z,63.57
2017-03-17T08:20:30.596Z,62.82
2017-03-17T08:21:40.865Z,62.34
2017-03-17T08:22:51.121Z,63.2
2017-03-17T08:24:01.168Z,63.01
2017-03-17T08:25:11.446Z,63.67
2017-03-17T08:26:21.398Z,63.48
2017-03-17T08:27:31.654Z,62.43
2017-03-17T08:28:41.919Z,62.43
2017-03-17T08:29:52.437Z,62.43
2017-03-17T08:31:02.696Z,62.72
2017-03-17T08:32:12.954Z,63.67
2017-03-17T08:33:23.214Z,62.62
2017-03-17T08:34:33.162Z,62.24
2017-03-17T08:35:43.516Z,62.53
2017-03-17T08:36:53.771Z,63.29
2017-03-17T08:38:03.711Z,62.62
2017-03-17T08:39:13.964Z,62.43
2017-03-17T08:40:24.229Z,62.34
2017-03-17T08:41:34.267Z,62.91
2017-03-17T08:42:44.213Z,62.43
2017-03-17T08:43:54.165Z,62.72
2017-03-17T08:45:04.423Z,63.2
2017-03-17T08:46:14.676Z,63.39
2017-03-17T08:47:25.037Z,63.2
2017-03-17T08:48:35.297Z,63.85
2017-03-17T08:49:45.562Z,63.95
2017-03-17T08:50:55.818Z,63.29
2017-03-17T08:52:06.071Z,62.62
2017-03-17T08:53:16.114Z,63.39
2017-03-17T08:54:26.372Z,64.23
2017-03-17T08:55:36.688Z,63.85
2017-03-17T08:56:46.948Z,62.62
2017-03-17T08:57:56.896Z,62.43
2017-03-17T08:59:07.408Z,62.82
2017-03-17T09:00:17.663Z,63.13
2017-03-17T09:01:27.917Z,63.51
2017-03-17T09:02:37.551Z,62.66
2017-03-17T09:03:47.493Z,62.28
2017-03-17T09:04:58.111Z,62.47
2017-03-17T09:06:08.057Z,63.23
2017-03-17T09:07:18.320Z,62.18
2017-03-17T09:08:28.577Z,63.42
2017-03-17T09:09:38.837Z,63.32
2017-03-17T09:10:51.194Z,63.7
2017-03-17T09:12:01.449Z,63.6
2017-03-17T09:13:11.709Z,63.42
2017-03-17T09:14:21.966Z,63.6
2017-03-17T09:15:32.266Z,63.48
2017-03-17T09:16:42.623Z,62.62
2017-03-17T09:17:52.908Z,63.79
2017-03-17T09:19:03.177Z,63.42
2017-03-17T09:20:13.474Z,63.32
2017-03-17T09:21:23.755Z,62.85
2017-03-17T09:22:33.695Z,62.56
2017-03-17T09:23:43.641Z,62.85
2017-03-17T09:24:54.284Z,62.56
2017-03-17T09:26:03.929Z,61.9
2017-03-17T09:27:13.553Z,62.37
2017-03-17T09:28:23.811Z,63.51
2017-03-17T09:29:33.759Z,62.94
2017-03-17T09:30:44.076Z,63.04
2017-03-17T09:31:54.336Z,63.04
2017-03-17T09:33:04.595Z,62.66
2017-03-17T09:34:14.858Z,61.43
2017-03-17T09:35:25.121Z,61.8
2017-03-17T09:36:34.742Z,61.24
2017-03-17T09:37:44.688Z,61.33
2017-03-17T09:38:54.955Z,61.52
2017-03-17T09:40:05.204Z,61.43
2017-03-17T09:41:14.835Z,61.52
2017-03-17T09:42:25.089Z,61.46
2017-03-17T09:43:35.028Z,60.5
2017-03-17T09:44:44.996Z,60.22
2017-03-17T09:45:55.261Z,60.41
2017-03-17T09:47:05.524Z,60.6
2017-03-17T09:48:15.779Z,60.31
2017-03-17T09:49:26.048Z,59.56
2017-03-17T09:50:36.317Z,60.03
2017-03-17T09:51:46.259Z,59.75
2017-03-17T09:52:56.522Z,59.08
2017-03-17T09:54:06.783Z,59.66
2017-03-17T09:55:17.072Z,58.61
2017-03-17T09:56:27.326Z,58.61
2017-03-17T09:57:37.584Z,59.08
2017-03-17T09:58:47.841Z,59.08
2017-03-17T09:59:57.786Z,59.27
2017-03-17T10:01:07.728Z,58.99
2017-03-17T10:02:18.001Z,58.51
2017-03-17T10:03:27.942Z,58.14
2017-03-17T10:04:38.220Z,58.99
2017-03-17T10:05:48.475Z,59.4
2017-03-17T10:06:58.729Z,59.3
2017-03-17T10:08:08.985Z,58.92
2017-03-17T10:09:18.932Z,58.45
2017-03-17T10:10:29.193Z,58.45
2017-03-17T10:11:39.145Z,58.73
2017-03-17T10:12:49.407Z,58.73
2017-03-17T10:13:59.357Z,58.36
2017-03-17T10:15:09.618Z,58.17
2017-03-17T10:16:19.871Z,59.02
2017-03-17T10:17:29.812Z,58.73
2017-03-17T10:18:39.750Z,58.26
2017-03-17T10:19:50.011Z,57.5
2017-03-17T10:21:00.274Z,58.92
2017-03-17T10:22:10.528Z,58.45
2017-03-17T10:23:20.470Z,58.45
2017-03-17T10:24:30.440Z,58.45
2017-03-17T10:25:40.727Z,59.02
2017-03-17T10:26:50.360Z,58.26
2017-03-17T10:28:00.301Z,57.31
2017-03-17T10:29:10.556Z,57.31
2017-03-17T10:30:20.815Z,57.31
2017-03-17T10:31:31.082Z,56.39
2017-03-17T10:32:41.352Z,56.01
2017-03-17T10:33:51.606Z,55.54
2017-03-17T10:35:01.545Z,53.64
2017-03-17T10:36:11.834Z,53.92
2017-03-17T10:37:21.481Z,53.45
2017-03-17T10:38:31.738Z,53.35
2017-03-17T10:39:42.004Z,53.35
2017-03-17T10:40:51.946Z,52.69
2017-03-17T10:42:02.211Z,52.5
2017-03-17T10:43:12.475Z,51.95
2017-03-17T10:44:22.422Z,51.67
2017-03-17T10:45:32.368Z,52.24
2017-03-17T10:46:42.310Z,52.14
2017-03-17T10:47:52.567Z,52.05
2017-03-17T10:49:02.513Z,52.14
2017-03-17T10:50:12.765Z,52.24
2017-03-17T10:51:23.020Z,51.67
2017-03-17T10:52:32.963Z,51.67
2017-03-17T10:53:42.616Z,52.72
2017-03-17T10:54:52.567Z,51.86
2017-03-17T10:56:02.824Z,51.57
2017-03-17T10:57:13.081Z,50.72
2017-03-17T10:58:23.350Z,49.49
2017-03-17T10:59:33.618Z,48.82
2017-03-17T11:00:43.879Z,49.51
2017-03-17T11:01:54.140Z,49.7
2017-03-17T11:03:04.406Z,49.7
2017-03-17T11:04:14.358Z,48.75
2017-03-17T11:05:24.633Z,47.99
2017-03-17T11:06:34.263Z,49.41
2017-03-17T11:07:44.207Z,48.85
2017-03-17T11:08:54.160Z,47.42
2017-03-17T11:10:04.116Z,47.8
2017-03-17T11:11:13.746Z,48.56
2017-03-17T11:12:23.696Z,49.35
2017-03-17T11:13:33.650Z,48.11
2017-03-17T11:14:43.916Z,47.06
2017-03-17T11:15:54.185Z,46.33
2017-03-17T11:17:04.161Z,46.51
2017-03-17T11:18:14.421Z,46.23
2017-03-17T11:19:24.689Z,45.4
2017-03-17T11:20:34.634Z,43.78
2017-03-17T11:21:44.585Z,43.78
2017-03-17T11:22:54.218Z,44.26
2017-03-17T11:24:04.489Z,43.59
2017-03-17T11:25:14.445Z,43.78
2017-03-17T11:26:24.714Z,43.4
2017-03-17T11:27:34.981Z,42.44
2017-03-17T11:28:44.932Z,40.83
2017-03-17T11:29:55.206Z,41.4
2017-03-17T11:31:05.159Z,41.78
2017-03-17T11:32:15.115Z,41.59
2017-03-17T11:33:25.382Z,41.78
2017-03-17T11:34:35.700Z,42.83
2017-03-17T11:35:45.442Z,41.97
2017-03-17T11:36:55.771Z,40.83
2017-03-17T11:38:06.047Z,42.54
2017-03-17T11:39:16.324Z,43.11
2017-03-17T11:40:26.596Z,41.88
2017-03-17T11:41:36.860Z,41.78
2017-03-17T11:42:46.816Z,42.07
2017-03-17T11:43:56.777Z,42.16
2017-03-17T11:45:06.732Z,42.44
2017-03-17T11:46:16.999Z,42.35
2017-03-17T11:47:27.260Z,41.66
2017-03-17T11:48:36.579Z,42.71
2017-03-17T11:49:46.853Z,41.95
2017-03-17T11:50:57.131Z,41.95
2017-03-17T11:52:07.402Z,42.04
2017-03-17T11:53:17.666Z,41.85
2017-03-17T11:54:27.947Z,43.76
2017-03-17T11:55:37.896Z,43.28
2017-03-17T11:56:48.164Z,42.9
2017-03-17T11:57:58.433Z,43.38
2017-03-17T11:59:08.711Z,43.09
2017-03-17T12:00:18.662Z,43.09
2017-03-17T12:01:28.931Z,42.52
2017-03-17T12:02:39.209Z,40.64
2017-03-17T12:03:49.158Z,40.92
2017-03-17T12:04:59.428Z,41.4
2017-03-17T12:06:09.698Z,40.54
2017-03-17T12:07:19.958Z,40.83
2017-03-17T12:08:30.225Z,41.99
2017-03-17T12:09:40.494Z,41.02
2017-03-17T12:10:50.130Z,40.64
2017-03-17T12:12:00.400Z,42.83
2017-03-17T12:13:10.663Z,42.16
2017-03-17T12:14:20.933Z,42.9
2017-03-17T12:15:31.204Z,42.99
2017-03-17T12:16:41.160Z,43.66
2017-03-17T12:17:51.106Z,43.95
2017-03-17T12:19:01.375Z,43.38
2017-03-17T12:20:11.650Z,43.09
2017-03-17T12:21:21.907Z,43.38
2017-03-17T12:22:31.855Z,43.38
2017-03-17T12:23:42.132Z,45.09
2017-03-17T12:24:52.403Z,45.11
2017-03-17T12:26:02.389Z,44.04
2017-03-17T12:27:12.347Z,44.04
2017-03-17T12:28:22.613Z,43.28
2017-03-17T12:29:32.880Z,44.23
2017-03-17T12:30:43.146Z,43.66
2017-03-17T12:31:53.406Z,44.13
2017-03-17T12:33:03.665Z,43.85
2017-03-17T12:34:13.942Z,43.28
2017-03-17T12:35:23.894Z,43.19
2017-03-17T12:36:33.855Z,43.38
2017-03-17T12:37:44.121Z,42.8
2017-03-17T12:38:54.086Z,42.04
2017-03-17T12:40:04.354Z,43.28
2017-03-17T12:41:14.304Z,42.9
2017-03-17T12:42:24.261Z,41.78
2017-03-17T12:43:33.893Z,42.07
2017-03-17T12:44:44.157Z,43.51
2017-03-17T12:45:54.419Z,43.04
2017-03-17T12:47:04.683Z,42.66
2017-03-17T12:48:14.633Z,42.11
2017-03-17T12:49:24.900Z,41.61
2017-03-17T12:50:35.170Z,40.68
2017-03-17T12:51:45.442Z,40.68
2017-03-17T12:52:55.704Z,40.37
2017-03-17T12:54:06.005Z,41.52
2017-03-17T12:55:15.958Z,41.04
2017-03-17T12:56:25.910Z,40.47
2017-03-17T12:57:35.553Z,41.04
2017-03-17T12:58:45.826Z,41.21
2017-03-17T12:59:56.118Z,40.94
2017-03-17T13:01:06.392Z,41.11
2017-03-17T13:02:16.656Z,41.3
2017-03-17T13:03:26.922Z,41.97
2017-03-17T13:04:36.878Z,42.16
2017-03-17T13:05:46.854Z,41.78
2017-03-17T13:06:57.120Z,41.21
2017-03-17T13:08:07.386Z,41.88
2017-03-17T13:09:17.338Z,42.35
2017-03-17T13:10:27.613Z,42.25
2017-03-17T13:11:37.870Z,42.64
2017-03-17T13:12:48.135Z,42.73
2017-03-17T13:13:58.092Z,42.44
2017-03-17T13:15:08.039Z,42.83
2017-03-17T13:16:18.299Z,42.73
2017-03-17T13:17:28.252Z,43.3
2017-03-17T13:18:38.515Z,42.92
2017-03-17T13:19:48.779Z,43.4
2017-03-17T13:20:58.734Z,43.49
2017-03-17T13:22:09.008Z,43.87
2017-03-17T13:23:19.273Z,43.76
2017-03-17T13:24:29.229Z,45.18
2017-03-17T13:25:39.489Z,45.28
2017-03-17T13:26:49.752Z,46.14
2017-03-17T13:28:00.023Z,46.33
2017-03-17T13:29:10.290Z,46.14
2017-03-17T13:30:20.557Z,46.33
2017-03-17T13:31:30.831Z,47.85
2017-03-17T13:32:41.095Z,47.94
2017-03-17T13:33:50.761Z,48.77
2017-03-17T13:35:01.037Z,47.82
2017-03-17T13:36:11.306Z,49.06
2017-03-17T13:37:21.574Z,48.87
2017-03-17T13:38:31.520Z,48.68
2017-03-17T13:39:41.815Z,49.63
2017-03-17T13:40:51.768Z,49.13
2017-03-17T13:42:01.717Z,48.56
2017-03-17T13:43:11.991Z,48.85
2017-03-17T13:44:22.260Z,49.41
2017-03-17T13:45:32.575Z,50.08
2017-03-17T13:46:42.521Z,50.18
2017-03-17T13:47:52.465Z,50.74
2017-03-17T13:49:02.729Z,50.27
2017-03-17T13:50:13.019Z,49.13
2017-03-17T13:51:23.272Z,48.39
2017-03-17T13:52:33.553Z,48.58
2017-03-17T13:53:43.834Z,47.92
2017-03-17T13:54:54.101Z,48.58
2017-03-17T13:56:04.366Z,48.96
2017-03-17T13:57:14.630Z,47.85
2017-03-17T13:58:24.277Z,48.13
2017-03-17T13:59:34.546Z,48.51
2017-03-17T14:00:44.814Z,49.27
2017-03-17T14:01:55.078Z,47.94
2017-03-17T14:03:05.032Z,48.16
2017-03-17T14:04:15.312Z,47.87
2017-03-17T14:05:25.585Z,46.35
2017-03-17T14:06:35.852Z,47.11
2017-03-17T14:07:45.802Z,46.54
2017-03-17T14:08:56.092Z,47.37
2017-03-17T14:10:06.359Z,47.75
2017-03-17T14:11:16.619Z,47.66
2017-03-17T14:12:26.887Z,48.03
2017-03-17T14:13:36.836Z,47.47
2017-03-17T14:14:47.107Z,48.99
2017-03-17T14:15:56.745Z,48.42
2017-03-17T14:17:07.006Z,49.2
2017-03-17T14:18:17.284Z,48.06
2017-03-17T14:19:26.934Z,47.87
2017-03-17T14:20:37.192Z,48.32
2017-03-17T14:21:47.460Z,47.85
2017-03-17T14:22:57.406Z,48.03
2017-03-17T14:24:07.037Z,48.32
2017-03-17T14:25:17.310Z,48.61
2017-03-17T14:26:27.259Z,48.23
2017-03-17T14:27:37.522Z,48.42
2017-03-17T14:28:47.162Z,48.51
2017-03-17T14:29:57.107Z,48.9
2017-03-17T14:31:06.738Z,49.18
2017-03-17T14:32:16.998Z,49.08
2017-03-17T14:33:26.941Z,48.51
2017-03-17T14:34:36.899Z,48.13
2017-03-17T14:35:47.157Z,47.56
2017-03-17T14:36:57.104Z,46.7
2017-03-17T14:38:06.740Z,46.44
2017-03-17T14:39:16.701Z,46.25
2017-03-17T14:40:26.963Z,43.78
2017-03-17T14:41:37.225Z,44.64
2017-03-17T14:42:47.171Z,45.3
2017-03-17T14:43:57.129Z,45.4
2017-03-17T14:45:07.435Z,44.92
2017-03-17T14:46:17.701Z,45.01
2017-03-17T14:47:27.645Z,45.49
2017-03-17T14:48:37.598Z,46.06
2017-03-17T14:49:47.552Z,46.06
2017-03-17T14:50:57.498Z,45.3
2017-03-17T14:52:07.770Z,45.11
2017-03-17T14:53:17.724Z,43.78
2017-03-17T14:54:27.987Z,43.13
2017-03-17T14:55:37.932Z,42.28
2017-03-17T14:56:48.197Z,41.89
2017-03-17T14:57:58.151Z,41.8
2017-03-17T14:59:08.114Z,41.99
2017-03-17T15:00:18.379Z,42.56
2017-03-17T15:01:28.645Z,42.76
2017-03-17T15:02:38.903Z,43.13
2017-03-17T15:03:49.177Z,42.76
2017-03-17T15:04:59.449Z,43.13
2017-03-17T15:06:09.716Z,43.32
2017-03-17T15:07:19.980Z,43.04